EKCH/CPH METAR and TAF weather

Enter ICAO airport designator
Station Type Date Time Source
EKCH METAR 2019/04/18 20:20 UTC NOAA

EKCH 182020Z AUTO 10003KT 9999NDV NCD 09/01 Q1036 NOSIG


Station Type Date Time Source
EKCH Decoded METAR 2019/04/18 20:20 UTC NOAA

Koebenhavn / Kastrup, Denmark (EKCH) 55-37N 012-39E 5M
Apr 18, 2019 - 04:20 PM EDT / 2019.04.18 2020 UTC
Wind: from the E (100 degrees) at 3 MPH (3 KT):0
Temperature: 48 F (9 C)
Dew Point: 33 F (1 C)
Relative Humidity: 57%
Pressure (altimeter): 30.59 in. Hg (1036 hPa)
ob: EKCH 182020Z AUTO 10003KT 9999NDV NCD 09/01 Q1036 NOSIG
cycle: 20

Station Type Date Time Source
EKCH TAF 2019/04/18 18:06 UTC NOAA

TAF EKCH 181656Z 1818/1918 08005KT CAVOK

Example: see airport list